Time;durP1;ratioP1;P1;durP2;ratioP2;P2;SDS_P1;SDS_P2;PMS_P1;PMS_P2;Temp;Humidity;BMP_temperature;BMP_pressure;BME280_temperature;BME280_humidity;BME280_pressure;Samples;Min_cycle;Max_cycle;Signal;HPM_P1;HPM_P2
2023/08/16 00:01:17;;;;;;;12.17;9.90;;;18.30;99.90;;;;;;5071553;28;20238;-75
2023/08/16 00:03:45;;;;;;;16.30;10.67;;;18.30;99.90;;;;;;5055489;28;20305;-75
2023/08/16 00:06:14;;;;;;;12.00;10.70;;;18.30;99.90;;;;;;5054634;28;20236;-76
2023/08/16 00:08:42;;;;;;;12.47;9.53;;;18.30;99.90;;;;;;5056797;28;20227;-74
2023/08/16 00:11:12;;;;;;;11.70;10.50;;;18.30;99.90;;;;;;5065030;28;20219;-74
2023/08/16 00:13:39;;;;;;;13.23;10.37;;;18.20;99.90;;;;;;5056105;28;20278;-73
2023/08/16 00:16:07;;;;;;;11.13;10.03;;;18.20;99.90;;;;;;5056844;28;20216;-75
2023/08/16 00:18:36;;;;;;;13.23;10.10;;;18.10;99.90;;;;;;5062821;28;20231;-74
2023/08/16 00:21:04;;;;;;;14.03;11.30;;;18.10;99.90;;;;;;5062535;28;20212;-75
2023/08/16 00:23:32;;;;;;;11.87;10.47;;;18.10;99.90;;;;;;5056828;28;20204;-76
2023/08/16 00:26:00;;;;;;;12.10;10.77;;;18.10;99.90;;;;;;5057194;28;20283;-74
2023/08/16 00:28:30;;;;;;;12.67;11.40;;;18.10;99.90;;;;;;5056319;28;20216;-76
2023/08/16 00:30:58;;;;;;;12.57;10.40;;;18.10;99.90;;;;;;5055143;28;20622;-75
2023/08/16 00:33:26;;;;;;;13.70;11.47;;;18.00;99.90;;;;;;5055010;28;20273;-75
2023/08/16 00:35:54;;;;;;;14.10;11.17;;;18.00;99.90;;;;;;5055045;28;20726;-74
2023/08/16 00:38:22;;;;;;;14.33;11.80;;;18.00;99.90;;;;;;5055291;28;20216;-75
2023/08/16 00:40:50;;;;;;;15.40;11.13;;;18.00;99.90;;;;;;5055206;28;20211;-72
2023/08/16 00:43:19;;;;;;;13.13;11.10;;;17.90;99.90;;;;;;5054354;28;20231;-73
2023/08/16 00:45:49;;;;;;;16.30;10.93;;;17.90;99.90;;;;;;5054368;28;20674;-74
2023/08/16 00:48:18;;;;;;;12.23;11.03;;;17.90;99.90;;;;;;5055096;28;20243;-73
2023/08/16 00:50:47;;;;;;;14.57;11.13;;;17.80;99.90;;;;;;5055007;28;20231;-74
2023/08/16 00:53:18;;;;;;;13.07;11.53;;;17.90;99.90;;;;;;5054101;28;20686;-74
2023/08/16 00:55:46;;;;;;;14.27;11.33;;;17.80;99.90;;;;;;5055108;28;20212;-75
2023/08/16 00:58:15;;;;;;;12.37;10.57;;;17.80;99.90;;;;;;5054705;28;20212;-74
2023/08/16 01:00:43;;;;;;;14.70;10.80;;;17.80;99.90;;;;;;5054268;28;20201;-74
2023/08/16 01:03:12;;;;;;;13.57;10.73;;;17.80;99.90;;;;;;5054037;28;20295;-74
2023/08/16 01:05:41;;;;;;;14.00;10.73;;;17.80;99.90;;;;;;5054547;28;20230;-74
2023/08/16 01:08:10;;;;;;;13.47;10.63;;;17.80;99.90;;;;;;5054496;28;20269;-73
2023/08/16 01:10:48;;;;;;;11.97;9.87;;;17.80;99.90;;;;;;5054667;28;20208;-74
2023/08/16 01:13:22;;;;;;;10.60;9.50;;;17.70;99.90;;;;;;5054550;28;20612;-72
2023/08/16 01:15:51;;;;;;;12.67;9.30;;;17.70;99.90;;;;;;5058319;28;20718;-74
2023/08/16 01:18:22;;;;;;;12.17;9.13;;;17.70;99.90;;;;;;5073230;28;20207;-74
2023/08/16 01:20:52;;;;;;;9.27;8.30;;;17.70;99.90;;;;;;5073188;28;20200;-74
2023/08/16 01:23:31;;;;;;;9.80;8.67;;;17.70;99.90;;;;;;5054130;28;20622;-74
2023/08/16 01:26:13;;;;;;;8.27;7.37;;;17.70;99.90;;;;;;5054385;28;20653;-74
2023/08/16 01:28:45;;;;;;;9.17;7.63;;;17.60;99.90;;;;;;5054330;28;20620;-76
2023/08/16 01:31:13;;;;;;;8.80;7.63;;;17.70;99.90;;;;;;5053702;28;20672;-74
2023/08/16 01:33:41;;;;;;;9.20;7.47;;;17.60;99.90;;;;;;5054118;28;20212;-73
2023/08/16 01:36:09;;;;;;;8.97;7.47;;;17.60;99.90;;;;;;5053848;28;20208;-73
2023/08/16 01:38:38;;;;;;;10.47;7.50;;;17.50;99.90;;;;;;5054001;28;20208;-74
2023/08/16 01:41:11;;;;;;;10.93;7.60;;;17.60;99.90;;;;;;5054277;28;20265;-73
2023/08/16 01:43:42;;;;;;;10.33;7.97;;;17.50;99.90;;;;;;5053622;28;20204;-74
2023/08/16 01:46:11;;;;;;;11.17;7.10;;;17.50;99.90;;;;;;5053765;28;20251;-74
2023/08/16 01:48:39;;;;;;;8.47;7.67;;;17.50;99.90;;;;;;5071710;28;20216;-73
2023/08/16 01:51:08;;;;;;;12.03;8.30;;;17.50;99.90;;;;;;5074173;28;20242;-73
2023/08/16 01:53:37;;;;;;;9.37;8.47;;;17.40;99.90;;;;;;5073421;28;20235;-73
2023/08/16 01:56:05;;;;;;;12.03;7.63;;;17.40;99.90;;;;;;5057269;28;20597;-73
2023/08/16 01:58:33;;;;;;;10.30;8.47;;;17.40;99.90;;;;;;5053930;28;20211;-74
2023/08/16 02:01:03;;;;;;;10.50;7.73;;;17.40;99.90;;;;;;5053834;28;20560;-73
2023/08/16 02:03:32;;;;;;;9.97;8.23;;;17.30;99.90;;;;;;5052976;28;20212;-74
2023/08/16 02:06:00;;;;;;;11.57;8.43;;;17.30;99.90;;;;;;5053827;28;20244;-74
2023/08/16 02:08:28;;;;;;;9.87;8.60;;;17.30;99.90;;;;;;5053773;28;20266;-74
2023/08/16 02:10:56;;;;;;;12.17;9.17;;;17.30;99.90;;;;;;5053560;28;20258;-74
2023/08/16 02:13:25;;;;;;;11.23;9.00;;;17.20;99.90;;;;;;5073375;28;20243;-74
2023/08/16 02:16:00;;;;;;;13.20;8.97;;;17.20;99.90;;;;;;5073344;28;20264;-73
2023/08/16 02:18:31;;;;;;;10.60;8.93;;;17.20;99.90;;;;;;5073988;28;20215;-78
2023/08/16 02:20:59;;;;;;;11.83;9.13;;;17.20;99.90;;;;;;5075383;28;20208;-74
2023/08/16 02:23:27;;;;;;;11.40;8.80;;;17.10;99.90;;;;;;5064854;28;20208;-79
2023/08/16 02:25:55;;;;;;;12.50;9.37;;;17.10;99.90;;;;;;5056732;28;20686;-79
2023/08/16 02:28:23;;;;;;;14.27;10.30;;;17.10;99.90;;;;;;5064672;28;20208;-75
2023/08/16 02:30:51;;;;;;;12.70;10.07;;;17.10;99.90;;;;;;5056456;28;20262;-83
2023/08/16 02:33:20;;;;;;;13.50;10.50;;;17.00;99.90;;;;;;5056944;28;20208;-78
2023/08/16 02:35:49;;;;;;;11.10;9.90;;;17.00;99.90;;;;;;5061345;28;20294;-75
2023/08/16 02:38:18;;;;;;;13.47;10.53;;;17.00;99.90;;;;;;5073412;28;20215;-74
2023/08/16 02:40:46;;;;;;;13.87;10.17;;;17.00;99.90;;;;;;5075848;28;20204;-74
2023/08/16 02:43:14;;;;;;;11.57;9.93;;;16.90;99.90;;;;;;5076197;28;20204;-76
2023/08/16 02:45:42;;;;;;;13.30;10.30;;;16.90;99.90;;;;;;5076725;28;20188;-74
2023/08/16 02:48:11;;;;;;;15.73;10.60;;;16.90;99.90;;;;;;5077194;28;20231;-74
2023/08/16 02:50:39;;;;;;;14.00;10.17;;;17.00;99.90;;;;;;5094307;28;20207;-78
2023/08/16 02:53:09;;;;;;;16.20;10.37;;;16.90;99.90;;;;;;5088247;28;20234;-75
2023/08/16 02:55:37;;;;;;;13.37;11.20;;;16.80;99.90;;;;;;5089930;28;20223;-75
2023/08/16 02:58:05;;;;;;;13.63;11.77;;;16.90;99.90;;;;;;5094745;28;20235;-74
2023/08/16 03:00:33;;;;;;;14.40;11.73;;;16.90;99.90;;;;;;5086413;28;20208;-75
2023/08/16 03:03:02;;;;;;;14.57;11.93;;;16.80;99.90;;;;;;5079260;28;20264;-76
2023/08/16 03:05:30;;;;;;;12.57;11.37;;;16.80;99.90;;;;;;5084071;28;20223;-73
2023/08/16 03:07:59;;;;;;;13.57;11.03;;;16.80;99.90;;;;;;5096196;28;20211;-74
2023/08/16 03:10:28;;;;;;;15.00;11.23;;;16.80;99.90;;;;;;5096493;28;20199;-74
2023/08/16 03:12:56;;;;;;;11.07;10.07;;;16.80;99.90;;;;;;5096173;28;20212;-75
2023/08/16 03:15:24;;;;;;;15.33;10.00;;;16.70;99.90;;;;;;5095819;28;20241;-77
2023/08/16 03:17:52;;;;;;;11.63;10.20;;;16.70;99.90;;;;;;5096273;28;20199;-75
2023/08/16 03:20:20;;;;;;;10.37;9.37;;;16.70;99.90;;;;;;5080279;28;20204;-75
2023/08/16 03:22:49;;;;;;;13.23;9.90;;;16.60;99.90;;;;;;5075562;28;20193;-75
2023/08/16 03:25:17;;;;;;;12.50;10.30;;;16.60;99.90;;;;;;5076096;28;20242;-74
2023/08/16 03:27:47;;;;;;;10.70;9.30;;;16.50;99.90;;;;;;5075653;28;20231;-74
2023/08/16 03:30:15;;;;;;;10.87;9.73;;;16.50;99.90;;;;;;5075950;28;20191;-74
2023/08/16 03:32:43;;;;;;;11.87;9.73;;;16.50;99.90;;;;;;5075462;28;20298;-75
2023/08/16 03:35:12;;;;;;;13.73;9.17;;;16.40;99.90;;;;;;5073767;28;20243;-75
2023/08/16 03:37:40;;;;;;;12.43;9.67;;;16.40;99.90;;;;;;5054254;28;20211;-77
2023/08/16 03:40:09;;;;;;;10.63;9.20;;;16.40;99.90;;;;;;5057271;28;20257;-74
2023/08/16 03:42:37;;;;;;;16.57;10.33;;;16.40;99.90;;;;;;5074027;28;20298;-75
2023/08/16 03:45:07;;;;;;;11.13;9.90;;;16.30;99.90;;;;;;5075586;28;20243;-74
2023/08/16 03:47:35;;;;;;;13.10;10.10;;;16.30;99.90;;;;;;5079332;28;20210;-74
2023/08/16 03:50:05;;;;;;;11.13;9.23;;;16.30;99.90;;;;;;5095480;28;20214;-74
2023/08/16 03:52:33;;;;;;;12.43;10.10;;;16.30;99.90;;;;;;5095665;28;20213;-74
2023/08/16 03:55:01;;;;;;;11.07;9.87;;;16.30;99.90;;;;;;5095676;28;20199;-74
2023/08/16 03:57:29;;;;;;;12.10;10.90;;;16.20;99.90;;;;;;5095019;28;20210;-76
2023/08/16 03:59:57;;;;;;;13.20;10.20;;;16.20;99.90;;;;;;5096171;28;20196;-74
2023/08/16 04:02:26;;;;;;;14.43;11.80;;;16.20;99.90;;;;;;5089644;28;20207;-75
2023/08/16 04:04:54;;;;;;;14.50;10.60;;;16.20;99.90;;;;;;5092408;28;20242;-74
2023/08/16 04:07:23;;;;;;;12.37;10.07;;;16.20;99.90;;;;;;5094253;28;20183;-75
2023/08/16 04:09:51;;;;;;;14.83;10.33;;;16.20;99.90;;;;;;5090479;28;20234;-73
2023/08/16 04:12:19;;;;;;;11.67;10.30;;;16.20;99.90;;;;;;5079786;28;20214;-74
2023/08/16 04:14:47;;;;;;;15.10;11.67;;;16.20;99.90;;;;;;5073798;28;20257;-71
2023/08/16 04:17:15;;;;;;;13.17;11.67;;;16.20;99.90;;;;;;5072599;28;20637;-69
2023/08/16 04:19:45;;;;;;;12.33;11.03;;;16.20;99.90;;;;;;5051329;28;20250;-71
2023/08/16 04:22:13;;;;;;;12.70;11.40;;;16.30;99.90;;;;;;5050899;28;20253;-72
2023/08/16 04:24:41;;;;;;;11.33;10.10;;;16.40;99.90;;;;;;5050229;28;20208;-72
2023/08/16 04:27:09;;;;;;;12.83;10.63;;;16.50;99.90;;;;;;5051438;28;20220;-71
2023/08/16 04:29:37;;;;;;;11.87;10.67;;;16.50;99.90;;;;;;5051500;28;20212;-71
2023/08/16 04:32:06;;;;;;;12.50;10.83;;;16.50;99.90;;;;;;5052241;28;20263;-72
2023/08/16 04:34:34;;;;;;;12.83;10.90;;;16.60;99.90;;;;;;5071321;28;20306;-71
2023/08/16 04:37:04;;;;;;;11.67;10.23;;;16.60;99.90;;;;;;5067845;28;20220;-73
2023/08/16 04:39:32;;;;;;;11.73;10.60;;;16.70;99.90;;;;;;5071548;28;20211;-72
2023/08/16 04:42:00;;;;;;;10.70;9.60;;;16.70;99.90;;;;;;5071577;28;20223;-71
2023/08/16 04:44:28;;;;;;;9.97;8.80;;;16.70;99.90;;;;;;5055116;28;20208;-70
2023/08/16 04:46:56;;;;;;;10.07;9.03;;;16.80;99.90;;;;;;5051529;28;20212;-70
2023/08/16 04:49:26;;;;;;;10.77;8.17;;;16.90;99.90;;;;;;5064894;28;20265;-71
2023/08/16 04:51:55;;;;;;;8.63;7.73;;;17.00;99.90;;;;;;5059379;28;20211;-69
2023/08/16 04:54:24;;;;;;;10.37;8.27;;;17.00;99.90;;;;;;5054779;28;20295;-71
2023/08/16 04:56:53;;;;;;;9.83;8.40;;;17.00;99.90;;;;;;5054807;28;20298;-71
2023/08/16 04:59:21;;;;;;;12.47;7.80;;;17.00;99.90;;;;;;5054716;28;20213;-71
2023/08/16 05:01:50;;;;;;;11.13;8.17;;;17.10;99.90;;;;;;5054587;28;20212;-70
2023/08/16 05:04:18;;;;;;;12.40;7.80;;;17.20;99.90;;;;;;5054280;28;20710;-71
2023/08/16 05:06:46;;;;;;;8.93;7.70;;;17.20;99.90;;;;;;5054885;28;20242;-73
2023/08/16 05:09:14;;;;;;;7.30;6.60;;;17.20;99.90;;;;;;5054988;28;20240;-72
2023/08/16 05:11:43;;;;;;;8.47;6.97;;;17.30;99.90;;;;;;5054569;28;20266;-70
2023/08/16 05:14:11;;;;;;;9.00;7.20;;;17.40;99.90;;;;;;5068450;28;20628;-71
2023/08/16 05:16:39;;;;;;;8.77;6.73;;;17.40;99.90;;;;;;5074524;28;20690;-71
2023/08/16 05:19:08;;;;;;;9.63;6.63;;;17.50;99.90;;;;;;5074743;28;20212;-71
2023/08/16 05:21:36;;;;;;;6.83;6.10;;;17.70;99.90;;;;;;5067228;28;20205;-69
2023/08/16 05:24:04;;;;;;;10.20;6.37;;;17.80;99.90;;;;;;5054242;28;20298;-70
2023/08/16 05:26:32;;;;;;;7.27;6.57;;;17.90;99.90;;;;;;5054567;28;20211;-70
2023/08/16 05:29:02;;;;;;;7.83;6.33;;;18.00;99.90;;;;;;5054499;28;20624;-72
2023/08/16 05:31:30;;;;;;;8.93;6.90;;;18.10;99.90;;;;;;5054687;28;20651;-71
2023/08/16 05:33:58;;;;;;;8.77;6.63;;;18.20;99.90;;;;;;5054032;28;20216;-71
2023/08/16 05:36:29;;;;;;;7.90;6.23;;;18.20;99.90;;;;;;5053863;28;20717;-70
2023/08/16 05:38:57;;;;;;;7.13;5.73;;;18.30;99.90;;;;;;5053712;28;20735;-70
2023/08/16 05:41:26;;;;;;;9.10;6.10;;;18.30;99.90;;;;;;5054290;28;20681;-71
2023/08/16 05:43:54;;;;;;;8.17;6.37;;;18.50;99.90;;;;;;5054074;28;20216;-71
2023/08/16 05:46:23;;;;;;;6.83;5.90;;;18.60;99.90;;;;;;5054426;28;20204;-70
2023/08/16 05:48:51;;;;;;;7.87;5.87;;;18.70;99.90;;;;;;5058214;28;20647;-70
2023/08/16 05:51:19;;;;;;;6.57;5.90;;;18.80;99.90;;;;;;5070085;28;20203;-70
2023/08/16 05:53:47;;;;;;;7.90;6.40;;;18.90;99.90;;;;;;5072352;28;20211;-70
2023/08/16 05:56:16;;;;;;;8.27;5.80;;;19.10;99.90;;;;;;5074045;28;20592;-70
2023/08/16 05:58:44;;;;;;;5.87;5.03;;;19.30;99.90;;;;;;5073822;28;20207;-70
2023/08/16 06:01:12;;;;;;;6.20;5.33;;;19.40;99.90;;;;;;5073554;28;20242;-70
2023/08/16 06:03:41;;;;;;;7.77;5.10;;;19.50;99.90;;;;;;5054862;28;20209;-71
2023/08/16 06:06:09;;;;;;;6.43;4.93;;;19.60;99.90;;;;;;5053518;28;20232;-70
2023/08/16 06:08:37;;;;;;;6.17;4.57;;;19.70;99.90;;;;;;5053535;28;20220;-70
2023/08/16 06:11:06;;;;;;;6.43;4.73;;;19.80;99.90;;;;;;5053757;28;20266;-71
2023/08/16 06:13:34;;;;;;;7.63;4.63;;;19.90;99.90;;;;;;5053402;28;20212;-71
2023/08/16 06:16:02;;;;;;;5.40;4.30;;;19.90;99.90;;;;;;5053602;28;20781;-71
2023/08/16 06:18:30;;;;;;;4.80;4.30;;;20.00;99.90;;;;;;5053015;28;20676;-71
2023/08/16 06:21:00;;;;;;;5.63;4.40;;;20.00;99.90;;;;;;5067064;28;20261;-70
2023/08/16 06:23:28;;;;;;;4.90;4.33;;;20.00;99.90;;;;;;5072989;28;20203;-71
2023/08/16 06:25:56;;;;;;;8.93;4.83;;;19.90;99.90;;;;;;5073137;28;20207;-70
2023/08/16 06:28:24;;;;;;;5.77;4.33;;;20.00;99.90;;;;;;5059778;28;20277;-70
2023/08/16 06:30:52;;;;;;;5.30;4.10;;;20.10;99.90;;;;;;5052729;28;20212;-71
2023/08/16 06:33:22;;;;;;;6.83;4.53;;;20.10;99.90;;;;;;5052602;28;20216;-70
2023/08/16 06:35:51;;;;;;;5.03;4.10;;;20.10;99.90;;;;;;5052260;28;20208;-70
2023/08/16 06:38:21;;;;;;;7.00;3.97;;;20.30;99.90;;;;;;5052640;28;20231;-70
2023/08/16 06:40:49;;;;;;;5.27;3.90;;;20.60;99.90;;;;;;5052686;28;20634;-70
2023/08/16 06:43:18;;;;;;;4.30;3.83;;;20.70;99.90;;;;;;5052357;28;20342;-70
2023/08/16 06:45:46;;;;;;;6.23;3.90;;;21.00;99.90;;;;;;5060106;28;20235;-70
2023/08/16 06:48:14;;;;;;;3.90;3.50;;;21.20;99.90;;;;;;5072746;28;20199;-71
2023/08/16 06:50:43;;;;;;;4.50;3.47;;;21.40;99.90;;;;;;5072879;28;20211;-69
2023/08/16 06:53:11;;;;;;;4.83;3.40;;;21.40;99.90;;;;;;5052356;28;20270;-70
2023/08/16 06:55:41;;;;;;;7.70;3.83;;;21.40;99.90;;;;;;5052997;28;20334;-70
2023/08/16 06:58:09;;;;;;;5.07;3.33;;;21.70;99.90;;;;;;5052912;28;20373;-70
2023/08/16 07:00:37;;;;;;;4.17;3.13;;;22.00;99.90;;;;;;5052762;28;20204;-71
2023/08/16 07:03:05;;;;;;;6.10;3.40;;;22.40;99.90;;;;;;5052729;28;20242;-70
2023/08/16 07:05:34;;;;;;;5.03;3.17;;;22.50;99.90;;;;;;5052289;28;20289;-71
2023/08/16 07:08:02;;;;;;;4.80;3.40;;;22.70;99.90;;;;;;5052676;28;20658;-71
2023/08/16 07:10:30;;;;;;;5.20;3.30;;;22.70;99.90;;;;;;5052128;28;20254;-71
2023/08/16 07:12:59;;;;;;;4.70;3.03;;;22.60;99.90;;;;;;5051575;28;20215;-71
2023/08/16 07:15:27;;;;;;;3.20;2.90;;;22.80;99.90;;;;;;5050297;28;20270;-71
2023/08/16 07:17:56;;;;;;;4.77;2.90;;;23.00;99.90;;;;;;5051917;28;20721;-70
2023/08/16 07:20:24;;;;;;;4.73;2.97;;;23.50;99.90;;;;;;5052453;28;20231;-69
2023/08/16 07:22:52;;;;;;;6.87;2.80;;;23.80;99.90;;;;;;5051966;28;20672;-71
2023/08/16 07:25:20;;;;;;;3.47;3.17;;;24.30;99.90;;;;;;5052157;28;20238;-70
2023/08/16 07:27:48;;;;;;;3.90;2.87;;;24.80;99.90;;;;;;5052152;28;20208;-70
2023/08/16 07:30:18;;;;;;;4.00;2.50;;;25.30;99.90;;;;;;5051901;28;20208;-70
2023/08/16 07:32:46;;;;;;;4.80;2.77;;;25.80;99.90;;;;;;5051490;28;20219;-71
2023/08/16 07:35:17;;;;;;;3.05;2.40;;;26.70;99.90;;;;;;5051860;28;20620;-71
2023/08/16 07:37:46;;;;;;;4.55;2.20;;;27.70;99.90;;;;;;5051762;28;20297;-70
2023/08/16 07:40:15;;;;;;;3.25;2.05;;;28.40;99.90;;;;;;5064791;28;20215;-70
2023/08/16 07:42:43;;;;;;;2.55;2.20;;;28.90;99.90;;;;;;5071868;28;20302;-71
2023/08/16 07:45:11;;;;;;;3.20;1.92;;;29.60;98.80;;;;;;5071494;28;20257;-69
2023/08/16 07:47:41;;;;;;;4.00;2.08;;;30.20;96.60;;;;;;5070220;28;20203;-71
2023/08/16 07:50:10;;;;;;;3.72;2.10;;;30.90;95.60;;;;;;5051978;28;20204;-70
2023/08/16 07:52:38;;;;;;;2.20;2.00;;;31.40;96.00;;;;;;5051561;28;20291;-72
2023/08/16 07:55:06;;;;;;;4.60;2.08;;;31.40;93.80;;;;;;5051458;28;20212;-71
2023/08/16 07:57:34;;;;;;;4.38;1.95;;;32.00;91.40;;;;;;5051620;28;20286;-70
2023/08/16 08:00:04;;;;;;;3.97;1.98;;;31.40;91.70;;;;;;5051506;28;20215;-71
2023/08/16 08:02:32;;;;;;;5.47;2.05;;;32.40;89.60;;;;;;5051725;28;20942;-72
2023/08/16 08:05:22;;;;;;;4.88;1.88;;;32.40;89.60;;;;;;5067132;28;20698;-72
2023/08/16 08:07:51;;;;;;;3.50;2.10;;;32.70;88.80;;;;;;5070514;28;20283;-72
2023/08/16 08:10:19;;;;;;;2.83;2.10;;;32.70;89.20;;;;;;5069248;28;20211;-71
2023/08/16 08:12:47;;;;;;;2.33;2.00;;;33.50;85.20;;;;;;5067899;28;20203;-71
2023/08/16 08:15:15;;;;;;;3.08;2.10;;;33.90;81.90;;;;;;5073203;28;20751;-70
2023/08/16 08:17:43;;;;;;;2.00;1.70;;;34.30;76.40;;;;;;5073475;28;20226;-71
2023/08/16 08:20:14;;;;;;;2.33;1.85;;;34.00;78.50;;;;;;5089994;28;20297;-71
2023/08/16 08:22:44;;;;;;;4.15;1.92;;;34.70;75.00;;;;;;5080203;28;20272;-70
2023/08/16 08:25:12;;;;;;;3.00;2.00;;;34.40;75.70;;;;;;5056894;28;20637;-72
2023/08/16 08:27:40;;;;;;;3.55;2.28;;;33.90;75.10;;;;;;5074250;28;20719;-70
2023/08/16 08:30:09;;;;;;;3.80;2.20;;;33.50;81.20;;;;;;5062696;28;20204;-70
2023/08/16 08:32:38;;;;;;;2.28;1.67;;;34.10;76.80;;;;;;5055138;28;20270;-72
2023/08/16 08:35:07;;;;;;;2.30;1.88;;;33.80;70.20;;;;;;5063019;28;20211;-69
2023/08/16 08:37:35;;;;;;;3.97;2.05;;;34.00;75.20;;;;;;5073140;28;20207;-70
2023/08/16 08:40:05;;;;;;;3.50;1.90;;;34.50;70.60;;;;;;5082315;28;20245;-70
2023/08/16 08:42:34;;;;;;;2.55;1.98;;;34.30;65.00;;;;;;5071962;28;20264;-70
2023/08/16 08:45:05;;;;;;;4.80;1.90;;;34.40;70.50;;;;;;5074586;28;20215;-70
2023/08/16 08:47:33;;;;;;;2.42;2.20;;;35.00;66.50;;;;;;5064720;28;20311;-70
2023/08/16 08:50:03;;;;;;;2.45;2.00;;;34.90;70.90;;;;;;5054806;28;20223;-70
2023/08/16 08:52:32;;;;;;;3.10;2.10;;;35.40;62.90;;;;;;5054714;28;20250;-70
2023/08/16 08:55:00;;;;;;;2.05;1.95;;;34.60;64.80;;;;;;5059281;28;20855;-72
2023/08/16 08:57:31;;;;;;;2.88;2.05;;;34.20;64.20;;;;;;5074678;28;20821;-70
2023/08/16 09:00:03;;;;;;;3.65;2.10;;;34.40;65.40;;;;;;5074041;28;20254;-71
2023/08/16 09:02:33;;;;;;;3.55;2.33;;;33.70;67.80;;;;;;5063160;28;20205;-72
2023/08/16 09:05:05;;;;;;;4.28;2.00;;;34.20;68.80;;;;;;5074073;28;20727;-70
2023/08/16 09:07:35;;;;;;;2.65;1.80;;;34.50;64.90;;;;;;5074749;28;20216;-70
2023/08/16 09:10:09;;;;;;;4.55;2.20;;;33.80;63.80;;;;;;5083880;28;20208;-69
2023/08/16 09:12:39;;;;;;;5.75;2.30;;;33.60;65.10;;;;;;5071263;28;20610;-69
2023/08/16 09:15:09;;;;;;;2.35;2.15;;;34.00;66.70;;;;;;5090164;28;20209;-69
2023/08/16 09:17:37;;;;;;;2.83;2.00;;;33.80;62.60;;;;;;5082241;28;20273;-71
2023/08/16 09:20:07;;;;;;;3.78;2.10;;;34.00;65.50;;;;;;5074317;28;20262;-69
2023/08/16 09:22:36;;;;;;;2.95;2.10;;;34.30;67.20;;;;;;5054398;28;20251;-71
2023/08/16 09:25:05;;;;;;;2.65;2.03;;;34.50;63.40;;;;;;5081705;28;20199;-70
2023/08/16 09:27:33;;;;;;;3.15;2.33;;;33.90;61.00;;;;;;5084117;28;20207;-71
2023/08/16 09:30:04;;;;;;;3.38;2.05;;;33.60;63.10;;;;;;5083568;28;20199;-70
2023/08/16 09:32:34;;;;;;;3.65;2.00;;;33.90;65.10;;;;;;5073376;28;20211;-70
2023/08/16 09:35:02;;;;;;;2.72;1.83;;;34.40;67.10;;;;;;5072526;28;20219;-70
2023/08/16 09:37:32;;;;;;;2.08;1.88;;;34.60;63.00;;;;;;5072774;28;20886;-70
2023/08/16 09:40:02;;;;;;;4.20;2.00;;;34.20;65.90;;;;;;5074586;28;20641;-70
2023/08/16 09:42:33;;;;;;;2.92;2.00;;;34.10;65.40;;;;;;5081162;28;20736;-69
2023/08/16 09:45:04;;;;;;;3.60;2.05;;;34.40;67.40;;;;;;5071162;28;20720;-70
2023/08/16 09:47:34;;;;;;;4.53;2.00;;;35.30;63.40;;;;;;5078561;28;20702;-70
2023/08/16 09:50:09;;;;;;;3.05;1.85;;;34.70;59.10;;;;;;5094093;28;20552;-70
2023/08/16 09:52:38;;;;;;;2.60;1.90;;;35.20;59.30;;;;;;5079908;28;20206;-70
2023/08/16 09:55:08;;;;;;;3.08;2.00;;;35.40;59.00;;;;;;5073538;28;20674;-70
2023/08/16 09:57:36;;;;;;;4.00;2.00;;;35.30;59.70;;;;;;5074139;28;20218;-70
2023/08/16 10:00:09;;;;;;;2.10;1.70;;;35.40;55.30;;;;;;5058710;28;20232;-69
2023/08/16 10:02:39;;;;;;;2.92;1.92;;;35.20;56.80;;;;;;5074901;28;20598;-70
2023/08/16 10:05:11;;;;;;;4.07;2.20;;;35.80;57.60;;;;;;5071718;28;20311;-70
2023/08/16 10:07:59;;;;;;;3.80;1.95;;;34.50;57.40;;;;;;5062245;28;20215;-69
2023/08/16 10:10:27;;;;;;;2.58;2.20;;;35.20;60.10;;;;;;5071471;28;20272;-69
2023/08/16 10:12:56;;;;;;;2.30;2.10;;;35.60;56.60;;;;;;5072102;28;20204;-70
2023/08/16 10:15:26;;;;;;;2.60;2.20;;;35.70;58.80;;;;;;5068372;28;20623;-70
2023/08/16 10:17:55;;;;;;;5.07;2.42;;;34.60;61.20;;;;;;5090060;28;20203;-70
2023/08/16 10:20:26;;;;;;;3.90;2.00;;;34.70;61.20;;;;;;5082456;28;20733;-71
2023/08/16 10:22:59;;;;;;;5.43;2.00;;;34.00;58.40;;;;;;5066109;28;20284;-70
2023/08/16 10:25:36;;;;;;;2.47;1.95;;;34.80;63.60;;;;;;5074030;28;20563;-72
2023/08/16 10:28:05;;;;;;;2.92;1.95;;;34.60;57.90;;;;;;5068558;28;20256;-73
2023/08/16 10:30:36;;;;;;;2.25;1.77;;;34.30;58.00;;;;;;5076799;28;20241;-74
2023/08/16 10:33:11;;;;;;;2.13;1.83;;;34.40;55.90;;;;;;5088166;28;20213;-75
2023/08/16 10:35:40;;;;;;;3.10;1.98;;;34.20;56.40;;;;;;5067918;28;20195;-75
2023/08/16 10:38:08;;;;;;;4.13;2.20;;;34.90;58.50;;;;;;5072639;28;20264;-75
2023/08/16 10:40:36;;;;;;;3.28;1.98;;;35.40;56.90;;;;;;5072120;28;20309;-75
2023/08/16 10:43:06;;;;;;;2.47;2.00;;;35.60;58.90;;;;;;5075199;28;20326;-74
2023/08/16 10:45:36;;;;;;;4.32;1.90;;;35.60;56.70;;;;;;5051054;28;20219;-75
2023/08/16 10:48:11;;;;;;;2.85;2.00;;;35.70;52.70;;;;;;5051566;28;20254;-75
2023/08/16 10:50:40;;;;;;;5.25;2.00;;;34.80;55.60;;;;;;5050073;28;20351;-74
2023/08/16 10:53:09;;;;;;;3.40;1.98;;;35.30;55.90;;;;;;5070637;28;20238;-74
2023/08/16 10:55:37;;;;;;;3.88;2.03;;;35.20;53.20;;;;;;5070602;28;20207;-75
2023/08/16 10:58:05;;;;;;;3.33;2.00;;;35.10;56.30;;;;;;5070421;28;20268;-74
2023/08/16 11:00:39;;;;;;;2.28;1.90;;;34.90;53.80;;;;;;5070704;28;20223;-75
2023/08/16 11:03:19;;;;;;;2.15;1.90;;;34.10;57.30;;;;;;5072012;28;20278;-75
2023/08/16 11:05:48;;;;;;;4.03;1.98;;;33.90;55.30;;;;;;5070619;28;20739;-75
2023/08/16 11:08:17;;;;;;;3.65;1.83;;;33.70;59.80;;;;;;5067402;28;20210;-74
2023/08/16 11:10:46;;;;;;;4.45;2.10;;;33.60;55.90;;;;;;5071700;28;20199;-75
2023/08/16 11:13:15;;;;;;;3.15;1.83;;;33.50;60.80;;;;;;5071674;28;20242;-75
2023/08/16 11:15:44;;;;;;;2.45;1.90;;;33.00;56.40;;;;;;5072203;28;20199;-74
2023/08/16 11:18:12;;;;;;;2.22;1.80;;;32.40;56.20;;;;;;5070656;28;20267;-74
2023/08/16 11:20:44;;;;;;;2.88;1.90;;;32.30;56.60;;;;;;5072022;28;20298;-74
2023/08/16 11:23:13;;;;;;;3.63;2.20;;;32.20;61.70;;;;;;5072046;28;20242;-74
2023/08/16 11:25:42;;;;;;;3.65;2.10;;;32.00;59.20;;;;;;5069538;28;20191;-73
2023/08/16 11:28:10;;;;;;;4.03;1.77;;;31.80;59.20;;;;;;5071414;28;20204;-73
2023/08/16 11:30:41;;;;;;;3.03;2.03;;;31.70;58.50;;;;;;5069887;28;20206;-75
2023/08/16 11:33:16;;;;;;;3.05;1.98;;;31.10;57.80;;;;;;5072379;28;20631;-74
2023/08/16 11:35:45;;;;;;;2.80;1.90;;;30.60;60.10;;;;;;5066284;28;20230;-73
2023/08/16 11:38:15;;;;;;;3.08;1.83;;;31.00;66.20;;;;;;5070517;28;20605;-73
2023/08/16 11:40:48;;;;;;;2.65;1.90;;;31.10;68.60;;;;;;5072190;28;20230;-73
2023/08/16 11:43:16;;;;;;;4.82;1.90;;;30.70;67.20;;;;;;5066764;28;20281;-72
2023/08/16 11:45:52;;;;;;;2.87;2.00;;;31.10;66.90;;;;;;5052634;28;20216;-74
2023/08/16 11:48:24;;;;;;;3.60;2.08;;;30.40;68.10;;;;;;5052356;28;20686;-74
2023/08/16 11:50:53;;;;;;;2.27;1.97;;;30.60;69.60;;;;;;5052831;28;20236;-73
2023/08/16 11:53:22;;;;;;;3.20;2.00;;;30.50;68.40;;;;;;5068008;28;20212;-72
2023/08/16 11:56:00;;;;;;;4.50;2.10;;;30.30;71.60;;;;;;5072769;28;20207;-72
2023/08/16 11:58:29;;;;;;;2.83;2.10;;;30.30;74.70;;;;;;5072000;28;20734;-73
2023/08/16 12:01:04;;;;;;;4.27;2.00;;;30.30;75.00;;;;;;5066098;28;20224;-73
2023/08/16 12:03:37;;;;;;;2.17;1.97;;;30.30;72.10;;;;;;5055588;28;20208;-73
2023/08/16 12:06:06;;;;;;;4.03;2.03;;;30.50;77.10;;;;;;5054893;28;20703;-74
2023/08/16 12:08:35;;;;;;;4.30;2.23;;;30.40;72.30;;;;;;5054196;28;20239;-74
2023/08/16 12:11:04;;;;;;;4.10;2.27;;;30.40;70.90;;;;;;5054186;28;20693;-73
2023/08/16 12:13:36;;;;;;;2.87;2.17;;;30.40;73.00;;;;;;5055154;28;20266;-73
2023/08/16 12:16:04;;;;;;;3.93;2.00;;;30.30;70.70;;;;;;5055847;28;20208;-72
2023/08/16 12:18:33;;;;;;;4.80;2.03;;;30.50;72.30;;;;;;5056436;28;20215;-75
2023/08/16 12:21:03;;;;;;;2.53;2.03;;;30.70;75.20;;;;;;5056289;28;20626;-74
2023/08/16 12:23:31;;;;;;;3.50;1.93;;;30.50;73.60;;;;;;5055590;28;20212;-74
2023/08/16 12:25:59;;;;;;;3.70;2.10;;;30.50;72.60;;;;;;5055687;28;20216;-74
2023/08/16 12:28:29;;;;;;;3.43;2.10;;;30.00;70.40;;;;;;5056021;28;20212;-73
2023/08/16 12:30:57;;;;;;;3.97;2.20;;;30.10;72.80;;;;;;5055936;28;20208;-73
2023/08/16 12:33:26;;;;;;;3.07;2.30;;;30.30;73.60;;;;;;5055633;28;20205;-73
2023/08/16 12:35:54;;;;;;;3.80;2.00;;;30.00;72.70;;;;;;5055983;28;20215;-74
2023/08/16 12:38:24;;;;;;;3.57;2.20;;;30.10;74.40;;;;;;5066672;28;20207;-75
2023/08/16 12:40:52;;;;;;;5.90;2.33;;;30.30;79.30;;;;;;5055886;28;20216;-74
2023/08/16 12:43:21;;;;;;;4.40;2.17;;;30.70;81.00;;;;;;5055331;28;20279;-72
2023/08/16 12:45:49;;;;;;;3.03;2.27;;;30.70;74.20;;;;;;5055387;28;20212;-74
2023/08/16 12:48:17;;;;;;;3.13;2.30;;;30.10;75.80;;;;;;5055087;28;20681;-76
2023/08/16 12:50:46;;;;;;;4.77;2.50;;;30.00;75.40;;;;;;5055167;28;20212;-74